sensor_id;sensor_type;location;lat;lon;timestamp;P1;durP1;ratioP1;P2;durP2;ratioP2
39600;SDS011;25297;44.758;11.310;2022-12-11T00:01:58;42.92;;;26.67;;
39600;SDS011;25297;44.758;11.310;2022-12-11T00:04:23;47.03;;;27.83;;
39600;SDS011;25297;44.758;11.310;2022-12-11T00:06:50;42.10;;;26.25;;
39600;SDS011;25297;44.758;11.310;2022-12-11T00:09:17;43.92;;;27.70;;
39600;SDS011;25297;44.758;11.310;2022-12-11T00:11:44;42.03;;;26.15;;
39600;SDS011;25297;44.758;11.310;2022-12-11T00:14:09;43.47;;;27.50;;
39600;SDS011;25297;44.758;11.310;2022-12-11T00:16:35;40.70;;;26.15;;
39600;SDS011;25297;44.758;11.310;2022-12-11T00:19:01;40.60;;;24.92;;
39600;SDS011;25297;44.758;11.310;2022-12-11T00:21:27;40.70;;;26.45;;
39600;SDS011;25297;44.758;11.310;2022-12-11T00:23:52;44.38;;;26.23;;
39600;SDS011;25297;44.758;11.310;2022-12-11T00:26:18;39.33;;;25.30;;
39600;SDS011;25297;44.758;11.310;2022-12-11T00:28:44;39.22;;;24.80;;
39600;SDS011;25297;44.758;11.310;2022-12-11T00:31:12;41.40;;;25.40;;
39600;SDS011;25297;44.758;11.310;2022-12-11T00:36:11;39.17;;;24.00;;
39600;SDS011;25297;44.758;11.310;2022-12-11T00:38:38;41.45;;;26.25;;
39600;SDS011;25297;44.758;11.310;2022-12-11T00:41:04;45.90;;;27.83;;
39600;SDS011;25297;44.758;11.310;2022-12-11T00:43:30;43.72;;;27.15;;
39600;SDS011;25297;44.758;11.310;2022-12-11T00:45:55;47.63;;;27.55;;
39600;SDS011;25297;44.758;11.310;2022-12-11T00:48:21;46.72;;;29.35;;
39600;SDS011;25297;44.758;11.310;2022-12-11T00:50:47;45.28;;;27.92;;
39600;SDS011;25297;44.758;11.310;2022-12-11T00:53:13;44.58;;;28.40;;
39600;SDS011;25297;44.758;11.310;2022-12-11T00:55:39;50.90;;;27.27;;
39600;SDS011;25297;44.758;11.310;2022-12-11T00:58:06;53.15;;;29.33;;
39600;SDS011;25297;44.758;11.310;2022-12-11T01:00:32;47.65;;;29.65;;
39600;SDS011;25297;44.758;11.310;2022-12-11T01:02:58;49.78;;;29.23;;
39600;SDS011;25297;44.758;11.310;2022-12-11T01:05:24;52.22;;;31.20;;
39600;SDS011;25297;44.758;11.310;2022-12-11T01:07:49;46.72;;;30.05;;
39600;SDS011;25297;44.758;11.310;2022-12-11T01:10:15;45.78;;;28.67;;
39600;SDS011;25297;44.758;11.310;2022-12-11T01:15:26;54.55;;;31.52;;
39600;SDS011;25297;44.758;11.310;2022-12-11T01:17:54;54.08;;;30.00;;
39600;SDS011;25297;44.758;11.310;2022-12-11T01:20:21;52.97;;;31.73;;
39600;SDS011;25297;44.758;11.310;2022-12-11T01:22:47;54.85;;;31.90;;
39600;SDS011;25297;44.758;11.310;2022-12-11T01:25:15;49.42;;;29.38;;
39600;SDS011;25297;44.758;11.310;2022-12-11T01:27:41;48.55;;;29.38;;
39600;SDS011;25297;44.758;11.310;2022-12-11T01:30:07;47.65;;;29.17;;
39600;SDS011;25297;44.758;11.310;2022-12-11T01:32:34;51.97;;;31.33;;
39600;SDS011;25297;44.758;11.310;2022-12-11T01:35:01;50.97;;;31.83;;
39600;SDS011;25297;44.758;11.310;2022-12-11T01:37:32;49.60;;;29.58;;
39600;SDS011;25297;44.758;11.310;2022-12-11T01:39:58;49.10;;;27.98;;
39600;SDS011;25297;44.758;11.310;2022-12-11T01:42:25;49.60;;;29.73;;
39600;SDS011;25297;44.758;11.310;2022-12-11T01:47:17;50.88;;;30.15;;
39600;SDS011;25297;44.758;11.310;2022-12-11T01:49:42;49.55;;;30.10;;
39600;SDS011;25297;44.758;11.310;2022-12-11T01:52:13;45.92;;;28.23;;
39600;SDS011;25297;44.758;11.310;2022-12-11T01:54:43;47.28;;;28.23;;
39600;SDS011;25297;44.758;11.310;2022-12-11T01:57:10;46.80;;;28.30;;
39600;SDS011;25297;44.758;11.310;2022-12-11T01:59:38;44.90;;;27.50;;
39600;SDS011;25297;44.758;11.310;2022-12-11T02:02:07;49.45;;;30.00;;
39600;SDS011;25297;44.758;11.310;2022-12-11T02:04:37;47.50;;;28.85;;
39600;SDS011;25297;44.758;11.310;2022-12-11T02:07:04;48.75;;;28.35;;
39600;SDS011;25297;44.758;11.310;2022-12-11T02:09:31;47.65;;;29.40;;
39600;SDS011;25297;44.758;11.310;2022-12-11T02:19:50;44.75;;;27.58;;
39600;SDS011;25297;44.758;11.310;2022-12-11T02:22:27;47.25;;;28.38;;
39600;SDS011;25297;44.758;11.310;2022-12-11T02:25:17;44.40;;;26.88;;
39600;SDS011;25297;44.758;11.310;2022-12-11T02:30:53;47.35;;;28.08;;
39600;SDS011;25297;44.758;11.310;2022-12-11T02:36:29;46.42;;;26.77;;
39600;SDS011;25297;44.758;11.310;2022-12-11T02:38:59;47.55;;;27.38;;
39600;SDS011;25297;44.758;11.310;2022-12-11T02:41:27;48.97;;;27.23;;
39600;SDS011;25297;44.758;11.310;2022-12-11T02:43:54;50.08;;;27.88;;
39600;SDS011;25297;44.758;11.310;2022-12-11T02:46:21;43.88;;;26.73;;
39600;SDS011;25297;44.758;11.310;2022-12-11T02:48:48;40.80;;;25.52;;
39600;SDS011;25297;44.758;11.310;2022-12-11T02:51:15;46.95;;;27.20;;
39600;SDS011;25297;44.758;11.310;2022-12-11T02:53:45;43.67;;;27.25;;
39600;SDS011;25297;44.758;11.310;2022-12-11T02:56:13;46.67;;;26.67;;
39600;SDS011;25297;44.758;11.310;2022-12-11T02:58:49;38.85;;;24.58;;
39600;SDS011;25297;44.758;11.310;2022-12-11T03:01:18;40.45;;;25.13;;
39600;SDS011;25297;44.758;11.310;2022-12-11T03:03:44;44.58;;;25.27;;
39600;SDS011;25297;44.758;11.310;2022-12-11T03:06:10;40.22;;;25.70;;
39600;SDS011;25297;44.758;11.310;2022-12-11T03:08:40;37.30;;;23.77;;
39600;SDS011;25297;44.758;11.310;2022-12-11T03:11:08;37.55;;;24.83;;
39600;SDS011;25297;44.758;11.310;2022-12-11T03:13:36;36.95;;;22.83;;
39600;SDS011;25297;44.758;11.310;2022-12-11T03:16:06;37.22;;;22.02;;
39600;SDS011;25297;44.758;11.310;2022-12-11T03:21:13;34.97;;;22.23;;
39600;SDS011;25297;44.758;11.310;2022-12-11T03:23:48;36.60;;;22.63;;
39600;SDS011;25297;44.758;11.310;2022-12-11T03:26:18;40.22;;;24.42;;
39600;SDS011;25297;44.758;11.310;2022-12-11T03:29:09;39.72;;;24.30;;
39600;SDS011;25297;44.758;11.310;2022-12-11T03:34:48;43.30;;;23.65;;
39600;SDS011;25297;44.758;11.310;2022-12-11T03:37:23;38.05;;;23.55;;
39600;SDS011;25297;44.758;11.310;2022-12-11T03:39:53;36.20;;;22.70;;
39600;SDS011;25297;44.758;11.310;2022-12-11T03:42:23;40.47;;;24.42;;
39600;SDS011;25297;44.758;11.310;2022-12-11T03:44:50;40.72;;;24.67;;
39600;SDS011;25297;44.758;11.310;2022-12-11T03:47:19;41.17;;;25.67;;
39600;SDS011;25297;44.758;11.310;2022-12-11T03:49:48;40.55;;;25.02;;
39600;SDS011;25297;44.758;11.310;2022-12-11T03:52:15;38.70;;;24.42;;
39600;SDS011;25297;44.758;11.310;2022-12-11T03:54:42;38.25;;;23.80;;
39600;SDS011;25297;44.758;11.310;2022-12-11T03:57:12;39.83;;;24.85;;
39600;SDS011;25297;44.758;11.310;2022-12-11T03:59:40;41.03;;;25.25;;
39600;SDS011;25297;44.758;11.310;2022-12-11T04:02:06;39.35;;;24.88;;
39600;SDS011;25297;44.758;11.310;2022-12-11T04:04:35;38.67;;;24.52;;
39600;SDS011;25297;44.758;11.310;2022-12-11T04:07:05;40.83;;;24.48;;
39600;SDS011;25297;44.758;11.310;2022-12-11T04:09:31;38.67;;;23.15;;
39600;SDS011;25297;44.758;11.310;2022-12-11T04:11:57;35.17;;;23.13;;
39600;SDS011;25297;44.758;11.310;2022-12-11T04:14:23;36.25;;;21.48;;
39600;SDS011;25297;44.758;11.310;2022-12-11T04:17:08;33.03;;;21.55;;
39600;SDS011;25297;44.758;11.310;2022-12-11T04:19:33;32.67;;;21.63;;
39600;SDS011;25297;44.758;11.310;2022-12-11T04:22:18;33.92;;;20.58;;
39600;SDS011;25297;44.758;11.310;2022-12-11T04:25:03;33.65;;;21.63;;
39600;SDS011;25297;44.758;11.310;2022-12-11T04:27:31;32.53;;;21.27;;
39600;SDS011;25297;44.758;11.310;2022-12-11T04:30:16;37.92;;;23.02;;
39600;SDS011;25297;44.758;11.310;2022-12-11T04:32:45;35.55;;;22.75;;
39600;SDS011;25297;44.758;11.310;2022-12-11T04:35:11;35.55;;;22.58;;
39600;SDS011;25297;44.758;11.310;2022-12-11T04:37:37;37.50;;;23.02;;
39600;SDS011;25297;44.758;11.310;2022-12-11T04:40:04;36.72;;;23.58;;
39600;SDS011;25297;44.758;11.310;2022-12-11T04:42:31;37.83;;;23.70;;
39600;SDS011;25297;44.758;11.310;2022-12-11T04:44:56;37.22;;;23.30;;
39600;SDS011;25297;44.758;11.310;2022-12-11T04:47:22;40.30;;;24.25;;
39600;SDS011;25297;44.758;11.310;2022-12-11T04:49:48;39.05;;;24.00;;
39600;SDS011;25297;44.758;11.310;2022-12-11T04:52:13;37.85;;;23.75;;
39600;SDS011;25297;44.758;11.310;2022-12-11T04:54:39;36.25;;;22.98;;
39600;SDS011;25297;44.758;11.310;2022-12-11T04:57:05;40.78;;;24.35;;
39600;SDS011;25297;44.758;11.310;2022-12-11T04:59:31;39.85;;;24.27;;
39600;SDS011;25297;44.758;11.310;2022-12-11T05:01:57;37.65;;;24.15;;
39600;SDS011;25297;44.758;11.310;2022-12-11T05:04:22;42.20;;;25.75;;
39600;SDS011;25297;44.758;11.310;2022-12-11T05:06:49;41.28;;;24.70;;
39600;SDS011;25297;44.758;11.310;2022-12-11T05:09:14;39.22;;;24.73;;
39600;SDS011;25297;44.758;11.310;2022-12-11T05:11:40;41.05;;;24.50;;
39600;SDS011;25297;44.758;11.310;2022-12-11T05:14:06;43.05;;;26.63;;
39600;SDS011;25297;44.758;11.310;2022-12-11T05:16:32;35.75;;;23.20;;
39600;SDS011;25297;44.758;11.310;2022-12-11T05:18:58;40.30;;;26.02;;
39600;SDS011;25297;44.758;11.310;2022-12-11T05:21:23;42.15;;;24.83;;
39600;SDS011;25297;44.758;11.310;2022-12-11T05:23:49;42.25;;;27.25;;
39600;SDS011;25297;44.758;11.310;2022-12-11T05:26:18;42.47;;;25.38;;
39600;SDS011;25297;44.758;11.310;2022-12-11T05:28:45;46.28;;;26.77;;
39600;SDS011;25297;44.758;11.310;2022-12-11T05:31:15;41.38;;;25.83;;
39600;SDS011;25297;44.758;11.310;2022-12-11T05:33:43;38.92;;;24.80;;
39600;SDS011;25297;44.758;11.310;2022-12-11T05:36:14;39.90;;;25.50;;
39600;SDS011;25297;44.758;11.310;2022-12-11T05:38:44;43.08;;;25.88;;
39600;SDS011;25297;44.758;11.310;2022-12-11T05:41:11;39.08;;;25.17;;
39600;SDS011;25297;44.758;11.310;2022-12-11T05:43:39;39.42;;;24.98;;
39600;SDS011;25297;44.758;11.310;2022-12-11T05:48:37;38.30;;;24.08;;
39600;SDS011;25297;44.758;11.310;2022-12-11T05:51:05;38.50;;;24.05;;
39600;SDS011;25297;44.758;11.310;2022-12-11T05:53:32;39.35;;;23.75;;
39600;SDS011;25297;44.758;11.310;2022-12-11T05:56:00;38.08;;;23.00;;
39600;SDS011;25297;44.758;11.310;2022-12-11T05:58:27;38.95;;;23.75;;
39600;SDS011;25297;44.758;11.310;2022-12-11T06:00:53;38.95;;;22.70;;
39600;SDS011;25297;44.758;11.310;2022-12-11T06:03:19;38.38;;;23.88;;
39600;SDS011;25297;44.758;11.310;2022-12-11T06:05:44;37.25;;;22.88;;
39600;SDS011;25297;44.758;11.310;2022-12-11T06:08:10;37.10;;;22.10;;
39600;SDS011;25297;44.758;11.310;2022-12-11T06:10:35;38.63;;;22.38;;
39600;SDS011;25297;44.758;11.310;2022-12-11T06:13:01;37.60;;;22.77;;
39600;SDS011;25297;44.758;11.310;2022-12-11T06:15:27;35.83;;;22.15;;
39600;SDS011;25297;44.758;11.310;2022-12-11T06:17:53;32.30;;;19.55;;
39600;SDS011;25297;44.758;11.310;2022-12-11T06:20:18;32.55;;;19.63;;
39600;SDS011;25297;44.758;11.310;2022-12-11T06:22:44;30.13;;;19.35;;
39600;SDS011;25297;44.758;11.310;2022-12-11T06:25:09;32.33;;;19.50;;
39600;SDS011;25297;44.758;11.310;2022-12-11T06:27:35;29.80;;;18.83;;
39600;SDS011;25297;44.758;11.310;2022-12-11T06:30:01;33.72;;;19.70;;
39600;SDS011;25297;44.758;11.310;2022-12-11T06:32:26;32.90;;;19.88;;
39600;SDS011;25297;44.758;11.310;2022-12-11T06:34:52;32.97;;;20.23;;
39600;SDS011;25297;44.758;11.310;2022-12-11T06:37:18;32.53;;;20.33;;
39600;SDS011;25297;44.758;11.310;2022-12-11T06:39:44;36.00;;;20.05;;
39600;SDS011;25297;44.758;11.310;2022-12-11T06:42:09;33.35;;;20.13;;
39600;SDS011;25297;44.758;11.310;2022-12-11T06:44:35;33.60;;;20.50;;
39600;SDS011;25297;44.758;11.310;2022-12-11T06:47:00;32.83;;;20.08;;
39600;SDS011;25297;44.758;11.310;2022-12-11T06:49:28;34.80;;;20.65;;
39600;SDS011;25297;44.758;11.310;2022-12-11T06:51:54;31.92;;;19.10;;
39600;SDS011;25297;44.758;11.310;2022-12-11T06:54:20;31.60;;;18.65;;
39600;SDS011;25297;44.758;11.310;2022-12-11T06:56:51;35.58;;;19.17;;
39600;SDS011;25297;44.758;11.310;2022-12-11T06:59:16;32.85;;;19.15;;
39600;SDS011;25297;44.758;11.310;2022-12-11T07:01:42;33.17;;;19.50;;
39600;SDS011;25297;44.758;11.310;2022-12-11T07:04:09;29.67;;;18.90;;
39600;SDS011;25297;44.758;11.310;2022-12-11T07:06:34;34.22;;;19.60;;
39600;SDS011;25297;44.758;11.310;2022-12-11T07:09:02;31.55;;;18.67;;
39600;SDS011;25297;44.758;11.310;2022-12-11T07:11:29;33.08;;;19.25;;
39600;SDS011;25297;44.758;11.310;2022-12-11T07:13:57;33.15;;;18.85;;
39600;SDS011;25297;44.758;11.310;2022-12-11T07:16:24;29.20;;;18.30;;
39600;SDS011;25297;44.758;11.310;2022-12-11T07:18:50;33.35;;;19.35;;
39600;SDS011;25297;44.758;11.310;2022-12-11T07:21:16;28.13;;;17.15;;
39600;SDS011;25297;44.758;11.310;2022-12-11T07:23:43;28.98;;;16.98;;
39600;SDS011;25297;44.758;11.310;2022-12-11T07:26:10;32.47;;;18.50;;
39600;SDS011;25297;44.758;11.310;2022-12-11T07:28:38;26.88;;;17.30;;
39600;SDS011;25297;44.758;11.310;2022-12-11T07:31:05;28.88;;;17.77;;
39600;SDS011;25297;44.758;11.310;2022-12-11T07:33:35;29.08;;;18.20;;
39600;SDS011;25297;44.758;11.310;2022-12-11T07:36:04;35.10;;;18.52;;
39600;SDS011;25297;44.758;11.310;2022-12-11T07:38:32;35.08;;;19.30;;
39600;SDS011;25297;44.758;11.310;2022-12-11T07:41:04;31.83;;;18.42;;
39600;SDS011;25297;44.758;11.310;2022-12-11T07:43:32;29.00;;;17.60;;
39600;SDS011;25297;44.758;11.310;2022-12-11T07:46:00;26.50;;;16.15;;
39600;SDS011;25297;44.758;11.310;2022-12-11T07:48:26;18.20;;;10.77;;
39600;SDS011;25297;44.758;11.310;2022-12-11T07:50:52;10.40;;;5.90;;
39600;SDS011;25297;44.758;11.310;2022-12-11T07:53:17;7.22;;;4.70;;
39600;SDS011;25297;44.758;11.310;2022-12-11T07:55:43;7.20;;;3.83;;
39600;SDS011;25297;44.758;11.310;2022-12-11T07:58:09;2.97;;;1.92;;
39600;SDS011;25297;44.758;11.310;2022-12-11T08:00:35;1.80;;;1.50;;
39600;SDS011;25297;44.758;11.310;2022-12-11T08:03:00;2.35;;;1.10;;
39600;SDS011;25297;44.758;11.310;2022-12-11T08:05:26;1.10;;;1.00;;
39600;SDS011;25297;44.758;11.310;2022-12-11T08:07:51;1.40;;;1.10;;
39600;SDS011;25297;44.758;11.310;2022-12-11T08:10:17;2.75;;;1.15;;
39600;SDS011;25297;44.758;11.310;2022-12-11T08:12:43;1.17;;;1.00;;
39600;SDS011;25297;44.758;11.310;2022-12-11T08:15:09;1.30;;;1.20;;
39600;SDS011;25297;44.758;11.310;2022-12-11T08:17:35;2.10;;;1.48;;
39600;SDS011;25297;44.758;11.310;2022-12-11T08:20:00;2.13;;;1.42;;
39600;SDS011;25297;44.758;11.310;2022-12-11T08:22:26;2.28;;;1.30;;
39600;SDS011;25297;44.758;11.310;2022-12-11T08:24:51;2.03;;;1.38;;
39600;SDS011;25297;44.758;11.310;2022-12-11T08:27:17;2.05;;;1.23;;
39600;SDS011;25297;44.758;11.310;2022-12-11T08:29:43;1.88;;;1.55;;
39600;SDS011;25297;44.758;11.310;2022-12-11T08:32:09;2.47;;;1.10;;
39600;SDS011;25297;44.758;11.310;2022-12-11T08:34:37;1.77;;;1.20;;
39600;SDS011;25297;44.758;11.310;2022-12-11T08:37:03;1.10;;;1.00;;
39600;SDS011;25297;44.758;11.310;2022-12-11T08:39:29;2.55;;;1.40;;
39600;SDS011;25297;44.758;11.310;2022-12-11T08:41:54;1.30;;;1.20;;
39600;SDS011;25297;44.758;11.310;2022-12-11T08:44:21;1.05;;;0.95;;
39600;SDS011;25297;44.758;11.310;2022-12-11T08:46:49;1.20;;;1.10;;
39600;SDS011;25297;44.758;11.310;2022-12-11T08:49:14;1.23;;;1.10;;
39600;SDS011;25297;44.758;11.310;2022-12-11T08:51:40;1.10;;;0.95;;
39600;SDS011;25297;44.758;11.310;2022-12-11T08:54:06;2.97;;;1.00;;
39600;SDS011;25297;44.758;11.310;2022-12-11T08:56:31;1.20;;;1.00;;
39600;SDS011;25297;44.758;11.310;2022-12-11T08:59:00;2.05;;;1.23;;
39600;SDS011;25297;44.758;11.310;2022-12-11T09:01:26;1.17;;;1.00;;
39600;SDS011;25297;44.758;11.310;2022-12-11T09:03:53;1.73;;;1.27;;
39600;SDS011;25297;44.758;11.310;2022-12-11T09:06:21;1.50;;;1.20;;
39600;SDS011;25297;44.758;11.310;2022-12-11T09:08:48;1.10;;;1.00;;
39600;SDS011;25297;44.758;11.310;2022-12-11T09:11:17;1.50;;;1.25;;
39600;SDS011;25297;44.758;11.310;2022-12-11T09:13:47;4.67;;;1.20;;
39600;SDS011;25297;44.758;11.310;2022-12-11T09:16:13;1.55;;;1.33;;
39600;SDS011;25297;44.758;11.310;2022-12-11T09:18:40;2.40;;;1.60;;
39600;SDS011;25297;44.758;11.310;2022-12-11T09:21:09;1.35;;;1.15;;
39600;SDS011;25297;44.758;11.310;2022-12-11T09:23:37;2.58;;;1.20;;
39600;SDS011;25297;44.758;11.310;2022-12-11T09:26:04;1.65;;;1.30;;
39600;SDS011;25297;44.758;11.310;2022-12-11T09:28:31;1.67;;;1.42;;
39600;SDS011;25297;44.758;11.310;2022-12-11T09:30:57;2.13;;;1.48;;
39600;SDS011;25297;44.758;11.310;2022-12-11T09:33:23;1.42;;;1.33;;
39600;SDS011;25297;44.758;11.310;2022-12-11T09:35:56;2.53;;;1.35;;
39600;SDS011;25297;44.758;11.310;2022-12-11T09:38:23;2.38;;;2.05;;
39600;SDS011;25297;44.758;11.310;2022-12-11T09:40:48;1.90;;;1.48;;
39600;SDS011;25297;44.758;11.310;2022-12-11T09:43:20;2.65;;;1.63;;
39600;SDS011;25297;44.758;11.310;2022-12-11T09:46:11;4.55;;;2.63;;
39600;SDS011;25297;44.758;11.310;2022-12-11T09:48:39;5.43;;;3.03;;
39600;SDS011;25297;44.758;11.310;2022-12-11T09:51:17;3.00;;;2.15;;
39600;SDS011;25297;44.758;11.310;2022-12-11T09:54:05;2.17;;;1.73;;
39600;SDS011;25297;44.758;11.310;2022-12-11T09:56:41;1.75;;;1.60;;
39600;SDS011;25297;44.758;11.310;2022-12-11T09:59:20;2.70;;;1.67;;
39600;SDS011;25297;44.758;11.310;2022-12-11T10:08:18;1.50;;;1.40;;
39600;SDS011;25297;44.758;11.310;2022-12-11T10:10:54;2.38;;;1.13;;
39600;SDS011;25297;44.758;11.310;2022-12-11T10:18:31;2.08;;;1.20;;
39600;SDS011;25297;44.758;11.310;2022-12-11T10:20:57;1.30;;;1.20;;
39600;SDS011;25297;44.758;11.310;2022-12-11T10:23:27;1.60;;;1.50;;
39600;SDS011;25297;44.758;11.310;2022-12-11T10:26:15;1.95;;;1.52;;
39600;SDS011;25297;44.758;11.310;2022-12-11T10:28:42;1.50;;;1.17;;
39600;SDS011;25297;44.758;11.310;2022-12-11T10:36:30;2.28;;;1.58;;
39600;SDS011;25297;44.758;11.310;2022-12-11T10:38:58;4.20;;;1.80;;
39600;SDS011;25297;44.758;11.310;2022-12-11T10:46:59;2.22;;;1.42;;
39600;SDS011;25297;44.758;11.310;2022-12-11T10:49:31;2.05;;;1.60;;
39600;SDS011;25297;44.758;11.310;2022-12-11T10:51:58;2.15;;;1.63;;
39600;SDS011;25297;44.758;11.310;2022-12-11T10:57:02;1.85;;;1.45;;
39600;SDS011;25297;44.758;11.310;2022-12-11T10:59:32;1.90;;;1.70;;
39600;SDS011;25297;44.758;11.310;2022-12-11T11:02:04;3.78;;;1.70;;
39600;SDS011;25297;44.758;11.310;2022-12-11T11:04:40;1.58;;;1.42;;
39600;SDS011;25297;44.758;11.310;2022-12-11T11:07:18;2.65;;;1.98;;
39600;SDS011;25297;44.758;11.310;2022-12-11T11:09:47;3.95;;;1.55;;
39600;SDS011;25297;44.758;11.310;2022-12-11T11:12:24;14.98;;;7.88;;
39600;SDS011;25297;44.758;11.310;2022-12-11T11:14:58;26.52;;;19.55;;
39600;SDS011;25297;44.758;11.310;2022-12-11T11:17:24;24.20;;;19.83;;
39600;SDS011;25297;44.758;11.310;2022-12-11T11:19:50;9.93;;;8.88;;
39600;SDS011;25297;44.758;11.310;2022-12-11T11:22:16;2.47;;;1.92;;
39600;SDS011;25297;44.758;11.310;2022-12-11T11:24:44;2.47;;;2.08;;
39600;SDS011;25297;44.758;11.310;2022-12-11T11:29:55;1.70;;;1.60;;
39600;SDS011;25297;44.758;11.310;2022-12-11T11:32:29;1.70;;;1.23;;
39600;SDS011;25297;44.758;11.310;2022-12-11T11:37:38;1.85;;;1.35;;
39600;SDS011;25297;44.758;11.310;2022-12-11T11:40:21;1.98;;;1.50;;
39600;SDS011;25297;44.758;11.310;2022-12-11T11:46:11;5.10;;;4.60;;
39600;SDS011;25297;44.758;11.310;2022-12-11T11:50:52;4.15;;;3.78;;
39600;SDS011;25297;44.758;11.310;2022-12-11T11:59:12;2.58;;;2.38;;
39600;SDS011;25297;44.758;11.310;2022-12-11T12:01:55;1.60;;;1.50;;
39600;SDS011;25297;44.758;11.310;2022-12-11T12:04:22;1.23;;;1.10;;
39600;SDS011;25297;44.758;11.310;2022-12-11T12:09:27;4.50;;;3.40;;
39600;SDS011;25297;44.758;11.310;2022-12-11T12:25:40;3.72;;;2.83;;
39600;SDS011;25297;44.758;11.310;2022-12-11T12:36:38;3.83;;;3.47;;
39600;SDS011;25297;44.758;11.310;2022-12-11T12:43:07;2.55;;;1.92;;
39600;SDS011;25297;44.758;11.310;2022-12-11T12:45:24;2.08;;;1.70;;
39600;SDS011;25297;44.758;11.310;2022-12-11T12:47:54;2.75;;;1.45;;
39600;SDS011;25297;44.758;11.310;2022-12-11T12:50:23;1.95;;;1.75;;
39600;SDS011;25297;44.758;11.310;2022-12-11T12:52:53;1.33;;;1.23;;
39600;SDS011;25297;44.758;11.310;2022-12-11T12:57:54;8.70;;;7.60;;
39600;SDS011;25297;44.758;11.310;2022-12-11T13:00:36;138.68;;;123.43;;
39600;SDS011;25297;44.758;11.310;2022-12-11T13:03:16;38.13;;;34.50;;
39600;SDS011;25297;44.758;11.310;2022-12-11T13:05:53;9.70;;;8.90;;
39600;SDS011;25297;44.758;11.310;2022-12-11T13:08:26;4.60;;;4.22;;
39600;SDS011;25297;44.758;11.310;2022-12-11T13:11:05;5.28;;;4.80;;
39600;SDS011;25297;44.758;11.310;2022-12-11T13:13:38;2.53;;;2.22;;
39600;SDS011;25297;44.758;11.310;2022-12-11T13:18:42;6.15;;;5.65;;
39600;SDS011;25297;44.758;11.310;2022-12-11T13:23:53;6.32;;;5.80;;
39600;SDS011;25297;44.758;11.310;2022-12-11T13:26:31;6.45;;;4.90;;
39600;SDS011;25297;44.758;11.310;2022-12-11T13:28:58;2.90;;;2.60;;
39600;SDS011;25297;44.758;11.310;2022-12-11T13:31:27;3.15;;;2.85;;
39600;SDS011;25297;44.758;11.310;2022-12-11T13:36:51;1.45;;;1.35;;
39600;SDS011;25297;44.758;11.310;2022-12-11T13:39:21;1.23;;;1.13;;
39600;SDS011;25297;44.758;11.310;2022-12-11T13:42:05;1.50;;;1.40;;
39600;SDS011;25297;44.758;11.310;2022-12-11T13:44:45;1.95;;;1.00;;
39600;SDS011;25297;44.758;11.310;2022-12-11T13:47:13;1.23;;;1.13;;
39600;SDS011;25297;44.758;11.310;2022-12-11T13:49:41;1.17;;;1.00;;
39600;SDS011;25297;44.758;11.310;2022-12-11T13:52:22;1.30;;;1.20;;
39600;SDS011;25297;44.758;11.310;2022-12-11T13:54:52;1.50;;;1.40;;
39600;SDS011;25297;44.758;11.310;2022-12-11T13:57:24;2.97;;;1.65;;
39600;SDS011;25297;44.758;11.310;2022-12-11T13:59:53;2.10;;;1.48;;
39600;SDS011;25297;44.758;11.310;2022-12-11T14:02:34;2.75;;;2.00;;
39600;SDS011;25297;44.758;11.310;2022-12-11T14:05:04;2.67;;;1.30;;
39600;SDS011;25297;44.758;11.310;2022-12-11T14:07:33;1.85;;;1.17;;
39600;SDS011;25297;44.758;11.310;2022-12-11T14:10:08;1.60;;;1.38;;
39600;SDS011;25297;44.758;11.310;2022-12-11T14:12:38;5.90;;;2.60;;
39600;SDS011;25297;44.758;11.310;2022-12-11T14:15:13;3.60;;;1.90;;
39600;SDS011;25297;44.758;11.310;2022-12-11T14:17:40;1.65;;;1.25;;
39600;SDS011;25297;44.758;11.310;2022-12-11T14:20:17;2.28;;;1.30;;
39600;SDS011;25297;44.758;11.310;2022-12-11T14:22:45;1.67;;;1.33;;
39600;SDS011;25297;44.758;11.310;2022-12-11T14:25:24;2.05;;;1.50;;
39600;SDS011;25297;44.758;11.310;2022-12-11T14:27:52;1.45;;;1.33;;
39600;SDS011;25297;44.758;11.310;2022-12-11T14:30:21;4.00;;;1.30;;
39600;SDS011;25297;44.758;11.310;2022-12-11T14:32:56;2.47;;;1.50;;
39600;SDS011;25297;44.758;11.310;2022-12-11T14:35:31;1.27;;;1.10;;
39600;SDS011;25297;44.758;11.310;2022-12-11T14:38:01;1.38;;;1.23;;
39600;SDS011;25297;44.758;11.310;2022-12-11T14:40:35;1.70;;;1.40;;
39600;SDS011;25297;44.758;11.310;2022-12-11T14:43:13;1.45;;;1.25;;
39600;SDS011;25297;44.758;11.310;2022-12-11T14:45:45;38.28;;;23.15;;
39600;SDS011;25297;44.758;11.310;2022-12-11T14:48:16;114.60;;;81.63;;
39600;SDS011;25297;44.758;11.310;2022-12-11T14:50:50;22.73;;;20.42;;
39600;SDS011;25297;44.758;11.310;2022-12-11T14:53:18;4.22;;;3.80;;
39600;SDS011;25297;44.758;11.310;2022-12-11T14:55:47;1.55;;;1.45;;
39600;SDS011;25297;44.758;11.310;2022-12-11T14:58:16;2.65;;;2.45;;
39600;SDS011;25297;44.758;11.310;2022-12-11T15:00:43;1.40;;;1.30;;
39600;SDS011;25297;44.758;11.310;2022-12-11T15:03:28;1.75;;;1.35;;
39600;SDS011;25297;44.758;11.310;2022-12-11T15:06:27;1.55;;;1.45;;
39600;SDS011;25297;44.758;11.310;2022-12-11T15:08:55;3.38;;;1.70;;
39600;SDS011;25297;44.758;11.310;2022-12-11T15:11:21;5.30;;;4.78;;
39600;SDS011;25297;44.758;11.310;2022-12-11T15:13:55;20.98;;;18.92;;
39600;SDS011;25297;44.758;11.310;2022-12-11T15:16:23;12.02;;;9.80;;
39600;SDS011;25297;44.758;11.310;2022-12-11T15:18:52;5.15;;;4.65;;
39600;SDS011;25297;44.758;11.310;2022-12-11T15:21:26;6.05;;;5.20;;
39600;SDS011;25297;44.758;11.310;2022-12-11T15:23:59;2.72;;;2.50;;
39600;SDS011;25297;44.758;11.310;2022-12-11T15:26:33;2.42;;;2.22;;
39600;SDS011;25297;44.758;11.310;2022-12-11T15:29:00;5.60;;;2.58;;
39600;SDS011;25297;44.758;11.310;2022-12-11T15:31:29;1.83;;;1.50;;
39600;SDS011;25297;44.758;11.310;2022-12-11T15:33:57;1.38;;;1.20;;
39600;SDS011;25297;44.758;11.310;2022-12-11T15:38:55;1.80;;;1.40;;
39600;SDS011;25297;44.758;11.310;2022-12-11T15:41:21;2.97;;;2.00;;
39600;SDS011;25297;44.758;11.310;2022-12-11T15:43:49;2.40;;;1.73;;
39600;SDS011;25297;44.758;11.310;2022-12-11T15:46:28;23.73;;;21.30;;
39600;SDS011;25297;44.758;11.310;2022-12-11T15:48:54;9.02;;;8.18;;
39600;SDS011;25297;44.758;11.310;2022-12-11T15:51:20;14.00;;;12.73;;
39600;SDS011;25297;44.758;11.310;2022-12-11T15:53:47;3.00;;;2.72;;
39600;SDS011;25297;44.758;11.310;2022-12-11T15:56:16;2.63;;;1.75;;
39600;SDS011;25297;44.758;11.310;2022-12-11T15:58:45;2.40;;;2.17;;
39600;SDS011;25297;44.758;11.310;2022-12-11T16:01:12;2.17;;;1.98;;
39600;SDS011;25297;44.758;11.310;2022-12-11T16:03:37;4.78;;;2.45;;
39600;SDS011;25297;44.758;11.310;2022-12-11T16:06:03;3.58;;;3.05;;
39600;SDS011;25297;44.758;11.310;2022-12-11T16:08:29;2.30;;;1.65;;
39600;SDS011;25297;44.758;11.310;2022-12-11T16:10:54;3.97;;;2.60;;
39600;SDS011;25297;44.758;11.310;2022-12-11T16:13:20;2.53;;;1.95;;
39600;SDS011;25297;44.758;11.310;2022-12-11T16:15:46;15.90;;;4.25;;
39600;SDS011;25297;44.758;11.310;2022-12-11T16:18:15;2.28;;;1.95;;
39600;SDS011;25297;44.758;11.310;2022-12-11T16:23:12;2.75;;;1.98;;
39600;SDS011;25297;44.758;11.310;2022-12-11T16:25:39;2.17;;;1.60;;
39600;SDS011;25297;44.758;11.310;2022-12-11T16:28:06;1.98;;;1.80;;